Time;durP1;ratioP1;P1;durP2;ratioP2;P2;SDS_P1;SDS_P2;PMS_P1;PMS_P2;Temp;Humidity;BMP_temperature;BMP_pressure;BME280_temperature;BME280_humidity;BME280_pressure;Samples;Min_cycle;Max_cycle;Signal;HPM_P1;HPM_P2
2023/04/17 00:01:09;;;;;;;26.20;14.93;;;;;;;;;;4975244;28;20196;-79
2023/04/17 00:03:35;;;;;;;30.47;16.27;;;;;;;;;;4969868;28;20192;-79
2023/04/17 00:06:00;;;;;;;31.70;15.87;;;;;;;;;;4971748;28;20184;-79
2023/04/17 00:08:25;;;;;;;29.47;15.07;;;;;;;;;;4958830;28;20185;-79
2023/04/17 00:10:50;;;;;;;27.27;15.17;;;;;;;;;;4959408;28;20215;-79
2023/04/17 00:13:15;;;;;;;24.40;14.80;;;;;;;;;;4970698;28;20215;-79
2023/04/17 00:15:42;;;;;;;29.80;14.90;;;;;;;;;;4976592;28;20677;-80
2023/04/17 00:18:08;;;;;;;25.73;15.87;;;;;;;;;;4987467;28;20584;-79
2023/04/17 00:20:33;;;;;;;29.20;15.70;;;;;;;;;;4974045;28;20197;-79
2023/04/17 00:22:58;;;;;;;27.73;15.10;;;;;;;;;;4970622;28;20180;-79
2023/04/17 00:25:23;;;;;;;29.87;15.50;;;;;;;;;;4974867;28;20195;-78
2023/04/17 00:27:49;;;;;;;29.50;15.63;;;;;;;;;;4972013;28;20607;-77
2023/04/17 00:30:14;;;;;;;28.90;15.47;;;;;;;;;;4973132;28;20200;-78
2023/04/17 00:32:40;;;;;;;30.33;15.60;;;;;;;;;;4976464;28;20212;-79
2023/04/17 00:35:05;;;;;;;29.77;16.13;;;;;;;;;;4974525;28;20199;-78
2023/04/17 00:37:30;;;;;;;25.50;14.50;;;;;;;;;;4974763;28;20197;-79
2023/04/17 00:39:56;;;;;;;26.20;13.87;;;;;;;;;;4964876;28;20177;-79
2023/04/17 00:42:21;;;;;;;23.70;13.40;;;;;;;;;;4974514;28;20188;-79
2023/04/17 00:44:46;;;;;;;25.30;14.43;;;;;;;;;;4977915;28;20208;-80
2023/04/17 00:47:11;;;;;;;27.87;14.00;;;;;;;;;;4977790;28;20553;-80
2023/04/17 00:49:37;;;;;;;28.47;14.33;;;;;;;;;;4975266;28;20678;-80
2023/04/17 00:52:02;;;;;;;24.80;12.57;;;;;;;;;;4975476;28;20200;-79
2023/04/17 00:54:28;;;;;;;29.13;14.13;;;;;;;;;;4974349;28;20185;-79
2023/04/17 00:56:55;;;;;;;28.70;14.63;;;;;;;;;;4969767;28;20275;-80
2023/04/17 00:59:20;;;;;;;34.37;15.47;;;;;;;;;;4972839;28;20190;-78
2023/04/17 01:01:46;;;;;;;26.43;12.93;;;;;;;;;;4972617;28;20287;-82
2023/04/17 01:04:11;;;;;;;25.33;15.13;;;;;;;;;;4975666;28;20180;-80
2023/04/17 01:06:36;;;;;;;28.93;15.37;;;;;;;;;;4974892;28;20617;-79
2023/04/17 01:09:02;;;;;;;25.90;14.47;;;;;;;;;;4973909;28;20176;-80
2023/04/17 01:11:27;;;;;;;27.53;13.60;;;;;;;;;;4970987;28;20278;-79
2023/04/17 01:13:52;;;;;;;27.43;14.87;;;;;;;;;;4974777;28;20666;-79
2023/04/17 01:16:18;;;;;;;25.67;14.77;;;;;;;;;;4973751;28;20184;-79
2023/04/17 01:18:43;;;;;;;25.53;13.40;;;;;;;;;;4992407;28;20190;-79
2023/04/17 01:21:08;;;;;;;33.03;17.17;;;;;;;;;;4972602;28;20197;-80
2023/04/17 01:23:40;;;;;;;30.00;15.13;;;;;;;;;;4974018;28;20180;-80
2023/04/17 01:26:05;;;;;;;31.07;14.97;;;;;;;;;;4966471;28;20184;-80
2023/04/17 01:28:30;;;;;;;28.77;14.83;;;;;;;;;;4973947;28;20191;-82
2023/04/17 01:30:56;;;;;;;28.70;15.10;;;;;;;;;;4973596;28;20667;-81
2023/04/17 01:33:21;;;;;;;29.63;14.90;;;;;;;;;;4973843;28;20630;-79
2023/04/17 01:35:46;;;;;;;27.70;14.33;;;;;;;;;;4974961;28;20179;-79
2023/04/17 01:38:11;;;;;;;27.73;15.13;;;;;;;;;;4975053;28;20180;-80
2023/04/17 01:40:37;;;;;;;28.10;15.63;;;;;;;;;;4969848;28;20678;-81
2023/04/17 01:43:02;;;;;;;27.30;14.93;;;;;;;;;;4975639;28;20176;-79
2023/04/17 01:45:27;;;;;;;26.33;14.73;;;;;;;;;;4974806;28;20680;-80
2023/04/17 01:47:52;;;;;;;28.27;15.10;;;;;;;;;;4974462;28;20184;-80
2023/04/17 01:50:17;;;;;;;25.47;14.90;;;;;;;;;;4973017;28;20615;-79
2023/04/17 01:52:44;;;;;;;24.30;13.40;;;;;;;;;;4971516;28;20211;-80
2023/04/17 01:55:09;;;;;;;25.73;14.77;;;;;;;;;;4974617;28;20188;-80
2023/04/17 01:57:34;;;;;;;25.30;13.27;;;;;;;;;;4971671;28;20555;-79
2023/04/17 02:00:00;;;;;;;26.50;14.37;;;;;;;;;;4979951;28;20176;-81
2023/04/17 02:02:25;;;;;;;23.50;13.63;;;;;;;;;;4974892;28;20195;-80
2023/04/17 02:04:50;;;;;;;26.17;14.97;;;;;;;;;;4972436;28;20176;-80
2023/04/17 02:07:15;;;;;;;25.20;14.10;;;;;;;;;;4973461;28;20187;-79
2023/04/17 02:09:40;;;;;;;21.27;12.30;;;;;;;;;;4976554;28;20180;-82
2023/04/17 02:12:06;;;;;;;22.67;12.83;;;;;;;;;;4974281;28;20212;-80
2023/04/17 02:14:31;;;;;;;23.87;13.43;;;;;;;;;;4975657;28;20568;-80
2023/04/17 02:16:56;;;;;;;24.47;14.07;;;;;;;;;;4975318;28;20176;-80
2023/04/17 02:19:21;;;;;;;27.83;14.00;;;;;;;;;;4971497;28;20555;-80
2023/04/17 02:21:46;;;;;;;25.27;13.33;;;;;;;;;;4971534;28;20196;-80
2023/04/17 02:24:12;;;;;;;22.47;12.97;;;;;;;;;;4971735;28;20180;-80
2023/04/17 02:26:37;;;;;;;22.93;12.73;;;;;;;;;;4980063;28;20239;-80
2023/04/17 02:29:02;;;;;;;19.33;12.13;;;;;;;;;;4977137;28;20183;-79
2023/04/17 02:31:27;;;;;;;20.30;11.97;;;;;;;;;;4978841;28;20204;-80
2023/04/17 02:33:53;;;;;;;19.80;11.93;;;;;;;;;;4978447;28;20196;-80
2023/04/17 02:36:18;;;;;;;24.77;13.77;;;;;;;;;;4978924;28;20180;-80
2023/04/17 02:38:43;;;;;;;25.50;13.30;;;;;;;;;;4977953;28;20172;-79
2023/04/17 02:41:09;;;;;;;24.67;14.17;;;;;;;;;;4978145;28;20287;-80
2023/04/17 02:43:35;;;;;;;21.67;12.63;;;;;;;;;;4976819;28;20182;-80
2023/04/17 02:46:00;;;;;;;23.07;12.20;;;;;;;;;;4971479;28;20185;-80
2023/04/17 02:48:26;;;;;;;21.47;12.40;;;;;;;;;;4977548;28;20235;-79
2023/04/17 02:50:51;;;;;;;24.70;12.87;;;;;;;;;;4976270;28;20196;-80
2023/04/17 02:53:16;;;;;;;18.23;11.43;;;;;;;;;;4976922;28;20295;-80
2023/04/17 02:55:41;;;;;;;21.73;12.47;;;;;;;;;;4976791;28;20560;-82
2023/04/17 02:58:06;;;;;;;19.47;11.93;;;;;;;;;;4976977;28;20662;-79
2023/04/17 03:00:32;;;;;;;24.60;12.63;;;;;;;;;;4977293;28;20200;-79
2023/04/17 03:02:57;;;;;;;20.90;12.37;;;;;;;;;;4977554;28;20188;-79
2023/04/17 03:05:22;;;;;;;18.73;10.70;;;;;;;;;;4976490;28;20649;-79
2023/04/17 03:07:50;;;;;;;22.40;11.83;;;;;;;;;;4975996;28;20271;-78
2023/04/17 03:10:22;;;;;;;21.07;12.43;;;;;;;;;;4975399;28;20204;-79
2023/04/17 03:12:48;;;;;;;18.63;11.13;;;;;;;;;;4976506;28;20650;-78
2023/04/17 03:15:13;;;;;;;20.07;10.40;;;;;;;;;;4977145;28;20169;-78
2023/04/17 03:17:39;;;;;;;16.23;10.20;;;;;;;;;;4976333;28;20212;-78
2023/04/17 03:20:06;;;;;;;19.33;10.93;;;;;;;;;;4974112;28;20266;-77
2023/04/17 03:22:31;;;;;;;19.33;11.33;;;;;;;;;;4976727;28;20180;-78
2023/04/17 03:24:56;;;;;;;23.27;11.43;;;;;;;;;;4976922;28;20224;-78
2023/04/17 03:27:23;;;;;;;19.60;11.53;;;;;;;;;;4975795;28;20861;-78
2023/04/17 03:29:48;;;;;;;17.90;10.67;;;;;;;;;;4976783;28;20657;-77
2023/04/17 03:32:14;;;;;;;16.77;10.60;;;;;;;;;;4974589;28;20224;-77
2023/04/17 03:34:39;;;;;;;21.43;12.33;;;;;;;;;;4976522;28;20270;-78
2023/04/17 03:37:05;;;;;;;17.80;11.30;;;;;;;;;;4978163;28;20185;-78
2023/04/17 03:39:30;;;;;;;23.10;12.47;;;;;;;;;;4977194;28;20175;-76
2023/04/17 03:41:55;;;;;;;20.23;11.37;;;;;;;;;;4976412;28;20200;-76
2023/04/17 03:44:20;;;;;;;19.43;11.57;;;;;;;;;;4975181;28;20172;-77
2023/04/17 03:46:45;;;;;;;20.57;11.60;;;;;;;;;;4967474;28;20258;-77
2023/04/17 03:49:11;;;;;;;21.13;11.87;;;;;;;;;;4974868;28;20681;-77
2023/04/17 03:51:36;;;;;;;21.10;11.63;;;;;;;;;;4976149;28;20215;-77
2023/04/17 03:54:01;;;;;;;21.07;12.57;;;;;;;;;;4976137;28;20196;-78
2023/04/17 03:56:26;;;;;;;23.43;13.47;;;;;;;;;;4974934;28;20272;-78
2023/04/17 03:58:51;;;;;;;17.90;11.93;;;;;;;;;;4972558;28;20181;-78
2023/04/17 04:01:17;;;;;;;20.53;12.20;;;;;;;;;;4976070;28;20188;-77
2023/04/17 04:03:42;;;;;;;22.20;13.00;;;;;;;;;;4975436;28;20197;-78
2023/04/17 04:06:07;;;;;;;18.70;11.00;;;;;;;;;;4970875;28;20180;-78
2023/04/17 04:08:32;;;;;;;19.63;12.37;;;;;;;;;;4975138;28;20181;-78
2023/04/17 04:11:00;;;;;;;23.60;13.50;;;;;;;;;;4974722;28;20296;-77
2023/04/17 04:13:25;;;;;;;26.17;14.37;;;;;;;;;;4973093;28;20208;-77
2023/04/17 04:15:50;;;;;;;24.17;14.13;;;;;;;;;;4979786;28;20560;-78
2023/04/17 04:18:16;;;;;;;24.40;13.20;;;;;;;;;;4987948;28;20191;-78
2023/04/17 04:20:41;;;;;;;25.10;13.67;;;;;;;;;;4987168;28;20240;-79
2023/04/17 04:23:06;;;;;;;24.57;13.27;;;;;;;;;;4985960;28;20177;-78
2023/04/17 04:25:32;;;;;;;27.07;13.27;;;;;;;;;;4988308;28;20244;-78
2023/04/17 04:28:00;;;;;;;25.20;13.97;;;;;;;;;;4989316;28;20164;-78
2023/04/17 04:30:25;;;;;;;27.33;14.87;;;;;;;;;;4981331;28;20214;-79
2023/04/17 04:32:51;;;;;;;28.83;14.90;;;;;;;;;;4986000;28;20212;-78
2023/04/17 04:35:16;;;;;;;23.07;14.27;;;;;;;;;;4977172;28;20179;-78
2023/04/17 04:37:41;;;;;;;24.97;14.13;;;;;;;;;;4976661;28;20662;-78
2023/04/17 04:40:10;;;;;;;29.47;15.17;;;;;;;;;;4974745;28;20317;-79
2023/04/17 04:42:35;;;;;;;30.07;15.87;;;;;;;;;;4979276;28;20526;-79
2023/04/17 04:45:01;;;;;;;30.03;16.27;;;;;;;;;;4975898;28;20187;-79
2023/04/17 04:47:26;;;;;;;27.73;16.27;;;;;;;;;;4968322;28;20236;-78
2023/04/17 04:49:51;;;;;;;23.77;14.47;;;;;;;;;;4972452;28;20725;-78
2023/04/17 04:52:16;;;;;;;26.47;16.33;;;;;;;;;;4974228;28;20222;-77
2023/04/17 04:54:42;;;;;;;29.57;16.00;;;;;;;;;;4973517;28;20172;-78
2023/04/17 04:57:07;;;;;;;28.57;15.73;;;;;;;;;;4974819;28;20172;-77
2023/04/17 04:59:32;;;;;;;30.17;16.63;;;;;;;;;;4971582;28;20606;-78
2023/04/17 05:01:57;;;;;;;24.57;15.70;;;;;;;;;;4973526;28;20203;-78
2023/04/17 05:04:23;;;;;;;25.23;15.50;;;;;;;;;;4973801;28;20195;-77
2023/04/17 05:06:48;;;;;;;28.43;16.40;;;;;;;;;;4974165;28;20168;-78
2023/04/17 05:09:13;;;;;;;25.07;14.73;;;;;;;;;;4973412;28;20236;-78
2023/04/17 05:11:38;;;;;;;32.50;16.90;;;;;;;;;;4972889;28;20270;-78
2023/04/17 05:14:03;;;;;;;29.53;16.00;;;;;;;;;;4974458;28;20177;-77
2023/04/17 05:16:29;;;;;;;28.47;16.60;;;;;;;;;;4975600;28;20200;-79
2023/04/17 05:18:54;;;;;;;29.03;16.37;;;;;;;;;;4974432;28;20618;-79
2023/04/17 05:21:20;;;;;;;29.17;16.93;;;;;;;;;;4973414;28;20211;-77
2023/04/17 05:23:45;;;;;;;32.17;16.80;;;;;;;;;;4971230;28;20184;-77
2023/04/17 05:26:10;;;;;;;24.70;13.90;;;;;;;;;;4973309;28;20250;-79
2023/04/17 05:28:35;;;;;;;29.90;15.80;;;;;;;;;;4972573;28;20184;-79
2023/04/17 05:31:01;;;;;;;30.60;16.80;;;;;;;;;;4973745;28;20767;-79
2023/04/17 05:33:26;;;;;;;30.40;17.77;;;;;;;;;;4973727;28;20212;-79
2023/04/17 05:35:51;;;;;;;31.33;17.17;;;;;;;;;;4975971;28;20259;-79
2023/04/17 05:38:16;;;;;;;30.73;17.57;;;;;;;;;;4974600;28;20257;-79
2023/04/17 05:40:42;;;;;;;28.20;15.50;;;;;;;;;;4973381;28;20211;-79
2023/04/17 05:43:08;;;;;;;33.30;17.03;;;;;;;;;;4974748;28;20653;-79
2023/04/17 05:45:33;;;;;;;36.10;17.57;;;;;;;;;;4972814;28;20267;-77
2023/04/17 05:47:58;;;;;;;29.97;16.13;;;;;;;;;;4967576;28;20179;-78
2023/04/17 05:50:23;;;;;;;28.53;16.43;;;;;;;;;;4969676;28;20615;-78
2023/04/17 05:52:49;;;;;;;25.30;15.30;;;;;;;;;;4969443;28;20700;-78
2023/04/17 05:55:14;;;;;;;27.77;15.20;;;;;;;;;;4972522;28;20200;-78
2023/04/17 05:57:39;;;;;;;29.97;16.37;;;;;;;;;;4971215;28;20176;-78
2023/04/17 06:00:11;;;;;;;29.57;16.57;;;;;;;;;;4963705;28;20240;-79
2023/04/17 06:02:37;;;;;;;34.07;15.87;;;;;;;;;;4967636;28;20200;-78
2023/04/17 06:05:05;;;;;;;28.70;16.93;;;;;;;;;;4971086;28;20253;-78
2023/04/17 06:07:31;;;;;;;26.87;16.63;;;;;;;;;;4973861;28;20184;-78
2023/04/17 06:09:56;;;;;;;29.97;15.03;;;;;;;;;;4972524;28;20187;-78
2023/04/17 06:12:22;;;;;;;27.77;16.00;;;;;;;;;;4973432;28;20223;-79
2023/04/17 06:14:47;;;;;;;27.30;14.30;;;;;;;;;;4975433;28;20183;-79
2023/04/17 06:17:12;;;;;;;26.00;14.43;;;;;;;;;;4975983;28;20169;-78
2023/04/17 06:19:38;;;;;;;25.03;13.90;;;;;;;;;;4975490;28;20176;-78
2023/04/17 06:22:03;;;;;;;29.40;15.67;;;;;;;;;;4970339;28;20208;-78
2023/04/17 06:24:28;;;;;;;27.20;14.93;;;;;;;;;;4972798;28;20192;-77
2023/04/17 06:26:53;;;;;;;23.33;15.00;;;;;;;;;;4971072;28;20184;-79
2023/04/17 06:29:19;;;;;;;24.50;13.90;;;;;;;;;;4972158;28;20185;-79
2023/04/17 06:31:45;;;;;;;26.47;14.70;;;;;;;;;;4973094;28;20204;-79
2023/04/17 06:34:10;;;;;;;25.43;15.87;;;;;;;;;;4972889;28;20186;-78
2023/04/17 06:36:35;;;;;;;28.23;15.70;;;;;;;;;;4972226;28;20173;-78
2023/04/17 06:39:00;;;;;;;27.77;15.07;;;;;;;;;;4972080;28;20167;-78
2023/04/17 06:41:26;;;;;;;27.87;15.80;;;;;;;;;;4973558;28;20205;-78
2023/04/17 06:43:51;;;;;;;26.87;15.83;;;;;;;;;;4975816;28;20187;-78
2023/04/17 06:46:16;;;;;;;27.37;14.83;;;;;;;;;;4974464;28;20172;-78
2023/04/17 06:48:41;;;;;;;26.33;15.40;;;;;;;;;;4973090;28;20180;-78
2023/04/17 06:51:06;;;;;;;29.33;16.73;;;;;;;;;;4973774;28;20222;-78
2023/04/17 06:53:32;;;;;;;26.90;15.50;;;;;;;;;;4972313;28;20673;-78
2023/04/17 06:55:57;;;;;;;27.03;14.97;;;;;;;;;;4972980;28;20669;-78
2023/04/17 06:58:22;;;;;;;21.67;14.10;;;;;;;;;;4973910;28;20177;-78
2023/04/17 07:00:47;;;;;;;25.57;16.20;;;;;;;;;;4970802;28;20205;-78
2023/04/17 07:03:13;;;;;;;25.70;15.97;;;;;;;;;;4974071;28;20185;-78
2023/04/17 07:05:38;;;;;;;30.07;16.20;;;;;;;;;;4963245;28;20189;-78
2023/04/17 07:08:04;;;;;;;32.83;16.50;;;;;;;;;;4965922;28;20189;-78
2023/04/17 07:10:29;;;;;;;27.13;15.77;;;;;;;;;;4969941;28;20299;-78
2023/04/17 07:12:54;;;;;;;28.67;16.17;;;;;;;;;;4977470;28;20234;-78
2023/04/17 07:15:20;;;;;;;31.13;16.40;;;;;;;;;;4978563;28;20642;-78
2023/04/17 07:17:45;;;;;;;24.33;13.87;;;;;;;;;;4977162;28;20635;-78
2023/04/17 07:20:11;;;;;;;25.00;14.90;;;;;;;;;;4977679;28;20187;-78
2023/04/17 07:22:36;;;;;;;27.97;14.90;;;;;;;;;;4973412;28;20196;-79
2023/04/17 07:25:01;;;;;;;25.40;14.13;;;;;;;;;;4969897;28;20192;-78
2023/04/17 07:27:26;;;;;;;23.83;14.43;;;;;;;;;;4976815;28;20453;-78
2023/04/17 07:29:53;;;;;;;24.47;15.10;;;;;;;;;;4974961;28;20238;-78
2023/04/17 07:32:19;;;;;;;26.80;15.13;;;;;;;;;;4978285;28;20202;-79
2023/04/17 07:34:44;;;;;;;26.40;15.93;;;;;;;;;;4972506;28;20264;-79
2023/04/17 07:37:10;;;;;;;24.07;15.07;;;;;;;;;;4968258;28;20190;-79
2023/04/17 07:39:35;;;;;;;28.40;16.27;;;;;;;;;;4969800;28;20188;-79
2023/04/17 07:42:05;;;;;;;25.43;15.57;;;;;;;;;;4971267;28;20315;-79
2023/04/17 07:44:30;;;;;;;28.53;16.30;;;;;;;;;;4973853;28;20564;-79
2023/04/17 07:46:55;;;;;;;26.77;15.90;;;;;;;;;;4978618;28;20179;-79
2023/04/17 07:49:20;;;;;;;25.93;15.13;;;;;;;;;;4981646;28;20195;-79
2023/04/17 07:51:45;;;;;;;25.63;14.53;;;;;;;;;;4976240;28;20195;-79
2023/04/17 07:54:11;;;;;;;24.23;14.50;;;;;;;;;;4972386;28;20180;-79
2023/04/17 07:56:36;;;;;;;28.17;15.50;;;;;;;;;;4975557;28;20575;-78
2023/04/17 07:59:02;;;;;;;24.43;15.80;;;;;;;;;;4974673;28;20247;-78
2023/04/17 08:01:27;;;;;;;27.03;15.20;;;;;;;;;;4981068;28;20189;-78
2023/04/17 08:03:54;;;;;;;26.53;15.43;;;;;;;;;;4984103;28;20200;-81
2023/04/17 08:06:19;;;;;;;24.87;15.70;;;;;;;;;;4985540;28;20562;-78
2023/04/17 08:08:46;;;;;;;25.87;15.93;;;;;;;;;;4983327;28;20158;-79
2023/04/17 08:11:12;;;;;;;28.70;17.20;;;;;;;;;;4986652;28;20255;-80
2023/04/17 08:13:37;;;;;;;27.43;15.10;;;;;;;;;;4996073;28;20208;-81
2023/04/17 08:16:03;;;;;;;25.37;15.50;;;;;;;;;;4995927;28;20169;-81
2023/04/17 08:18:28;;;;;;;31.77;16.70;;;;;;;;;;4996668;28;20175;-81
2023/04/17 08:20:53;;;;;;;28.23;15.47;;;;;;;;;;4997170;28;20196;-81
2023/04/17 08:23:19;;;;;;;25.20;14.90;;;;;;;;;;4990561;28;20199;-82
2023/04/17 08:25:44;;;;;;;24.60;14.97;;;;;;;;;;4985284;28;20232;-79
2023/04/17 08:28:10;;;;;;;25.80;15.90;;;;;;;;;;4982738;28;20185;-79
2023/04/17 08:30:35;;;;;;;27.83;16.57;;;;;;;;;;4983568;28;20254;-79
2023/04/17 08:33:00;;;;;;;24.90;15.13;;;;;;;;;;4979375;28;20188;-79
2023/04/17 08:35:25;;;;;;;34.10;16.37;;;;;;;;;;4980398;28;20177;-79
2023/04/17 08:37:51;;;;;;;22.53;13.23;;;;;;;;;;4977836;28;20554;-80
2023/04/17 08:40:17;;;;;;;23.58;13.85;;;;;;;;;;4991280;28;20204;-80
2023/04/17 08:42:43;;;;;;;22.67;15.02;;;;;;;;;;4999899;28;20166;-83
2023/04/17 08:45:12;;;;;;;25.40;15.05;;;;;;;;;;4984553;28;20271;-79
2023/04/17 08:47:38;;;;;;;25.05;13.68;;;;;;;;;;4976372;28;20279;-79
2023/04/17 08:50:11;;;;;;;22.92;14.50;;;;;;;;;;4961765;28;20232;-79
2023/04/17 08:52:39;;;;;;;21.48;13.25;;;;;;;;;;4974852;28;20236;-80
2023/04/17 08:55:05;;;;;;;20.40;13.07;;;;;;;;;;4976053;28;20203;-79
2023/04/17 08:57:30;;;;;;;22.38;14.02;;;;;;;;;;4963584;28;20185;-80
2023/04/17 08:59:55;;;;;;;22.85;14.18;;;;;;;;;;4974482;28;20177;-79
2023/04/17 09:02:20;;;;;;;24.48;13.85;;;;;;;;;;4967188;28;20172;-79
2023/04/17 09:04:46;;;;;;;26.73;14.25;;;;;;;;;;4972592;28;20198;-80
2023/04/17 09:07:12;;;;;;;23.05;13.43;;;;;;;;;;4976145;28;20639;-81
2023/04/17 09:09:51;;;;;;;27.38;14.93;;;;;;;;;;4973220;28;20267;-79
2023/04/17 09:12:17;;;;;;;26.17;14.15;;;;;;;;;;4956799;28;20581;-80
2023/04/17 09:14:42;;;;;;;24.45;14.43;;;;;;;;;;4971369;28;20654;-80
2023/04/17 09:17:07;;;;;;;23.55;13.75;;;;;;;;;;4955632;29;20263;-80
2023/04/17 09:19:32;;;;;;;25.52;14.38;;;;;;;;;;4970900;28;20213;-80
2023/04/17 09:22:15;;;;;;;24.67;13.88;;;;;;;;;;4957489;28;20722;-80
2023/04/17 09:24:43;;;;;;;21.83;14.48;;;;;;;;;;4957541;28;20169;-80
2023/04/17 09:27:18;;;;;;;22.13;13.55;;;;;;;;;;4974109;28;20537;-79
2023/04/17 09:29:56;;;;;;;23.15;14.43;;;;;;;;;;4961228;28;20702;-80
2023/04/17 09:32:22;;;;;;;34.42;14.38;;;;;;;;;;4959180;28;20280;-79
2023/04/17 09:34:47;;;;;;;24.25;14.35;;;;;;;;;;4972146;28;20211;-79
2023/04/17 09:37:12;;;;;;;23.75;13.55;;;;;;;;;;4968264;28;20192;-79
2023/04/17 09:39:39;;;;;;;18.98;12.70;;;;;;;;;;4970718;28;20612;-79
2023/04/17 09:42:05;;;;;;;18.38;12.20;;;;;;;;;;4976317;28;20179;-80
2023/04/17 09:44:30;;;;;;;24.42;13.68;;;;;;;;;;4976057;28;20172;-79
2023/04/17 09:46:55;;;;;;;20.52;13.23;;;;;;;;;;4973912;28;20172;-79
2023/04/17 09:49:32;;;;;;;18.90;11.73;;;;;;;;;;4971240;28;20183;-79
2023/04/17 09:51:57;;;;;;;18.95;11.63;;;;;;;;;;4967380;28;20227;-79
2023/04/17 09:54:24;;;;;;;23.27;13.10;;;;;;;;;;4967811;28;20215;-79
2023/04/17 09:56:51;;;;;;;22.15;12.57;;;;;;;;;;4968338;28;20433;-80
2023/04/17 09:59:17;;;;;;;22.98;13.10;;;;;;;;;;4975102;28;20180;-79
2023/04/17 10:01:42;;;;;;;22.58;13.27;;;;;;;;;;4975252;28;20576;-79
2023/04/17 10:04:07;;;;;;;20.10;13.23;;;;;;;;;;4975570;28;20180;-79
2023/04/17 10:06:33;;;;;;;20.58;12.25;;;;;;;;;;4973533;28;20267;-79
2023/04/17 10:08:58;;;;;;;19.40;12.73;;;;;;;;;;4969828;28;20201;-79
2023/04/17 10:11:27;;;;;;;18.52;11.35;;;;;;;;;;4977325;28;20243;-78
2023/04/17 10:13:58;;;;;;;20.40;12.48;;;;;;;;;;4979474;28;20276;-78
2023/04/17 10:16:43;;;;;;;17.80;11.82;;;;;;;;;;4977345;28;20175;-78
2023/04/17 10:19:26;;;;;;;19.85;12.50;;;;;;;;;;4969434;28;20192;-78
2023/04/17 10:22:10;;;;;;;19.42;13.05;;;;;;;;;;4978485;28;20187;-78
2023/04/17 10:24:35;;;;;;;20.73;12.60;;;;;;;;;;4969221;28;20173;-78
2023/04/17 10:27:01;;;;;;;17.63;11.45;;;;;;;;;;4976382;28;20203;-78
2023/04/17 10:29:45;;;;;;;18.42;11.68;;;;;;;;;;4977390;28;20280;-78
2023/04/17 10:32:10;;;;;;;18.10;10.93;;;;;;;;;;4978749;28;20200;-78
2023/04/17 10:34:36;;;;;;;16.65;11.45;;;;;;;;;;4975904;28;20171;-78
2023/04/17 10:37:02;;;;;;;16.15;11.88;;;;;;;;;;4976020;28;20180;-79
2023/04/17 10:39:46;;;;;;;15.93;11.63;;;;;;;;;;4975272;28;20592;-78
2023/04/17 10:42:16;;;;;;;16.45;11.88;;;;;;;;;;4974878;28;20689;-78
2023/04/17 10:44:43;;;;;;;18.95;12.30;;;;;;;;;;4976444;28;20275;-79
2023/04/17 10:47:09;;;;;;;17.75;11.98;;;;;;;;;;4973409;28;20188;-79
2023/04/17 10:49:49;;;;;;;17.65;11.85;;;;;;;;;;4975647;28;20196;-79
2023/04/17 10:52:43;;;;;;;16.02;11.45;;;;;;;;;;4982690;28;20191;-78
2023/04/17 10:55:16;;;;;;;18.98;11.13;;;;;;;;;;4978862;28;20168;-78
2023/04/17 10:57:54;;;;;;;17.92;10.90;;;;;;;;;;4970869;28;23093;-80
2023/04/17 11:00:26;;;;;;;16.77;11.48;;;;;;;;;;4973168;28;20195;-78
2023/04/17 11:02:51;;;;;;;17.70;11.73;;;;;;;;;;4978211;28;20529;-78
2023/04/17 11:05:17;;;;;;;18.98;12.00;;;;;;;;;;4979611;28;20183;-79
2023/04/17 11:07:43;;;;;;;17.30;11.68;;;;;;;;;;4977982;28;20289;-78
2023/04/17 11:10:09;;;;;;;16.65;11.68;;;;;;;;;;4978525;28;20207;-78
2023/04/17 11:12:34;;;;;;;18.73;12.02;;;;;;;;;;4977053;28;20658;-78
2023/04/17 11:15:03;;;;;;;16.63;11.93;;;;;;;;;;4977879;28;20189;-78
2023/04/17 11:17:28;;;;;;;17.92;12.07;;;;;;;;;;4968197;28;20176;-78
2023/04/17 11:19:54;;;;;;;16.00;10.98;;;;;;;;;;4973258;28;20227;-79
2023/04/17 11:22:20;;;;;;;19.25;12.32;;;;;;;;;;4977925;28;20568;-79
2023/04/17 11:24:45;;;;;;;19.73;12.43;;;;;;;;;;4978129;28;20192;-78
2023/04/17 11:27:10;;;;;;;25.75;12.98;;;;;;;;;;4976995;28;20615;-78
2023/04/17 11:29:36;;;;;;;18.00;11.88;;;;;;;;;;4978098;28;20563;-78
2023/04/17 11:32:01;;;;;;;19.52;12.65;;;;;;;;;;4978238;28;20204;-78
2023/04/17 11:34:26;;;;;;;17.65;12.15;;;;;;;;;;4976878;28;20187;-79
2023/04/17 11:36:53;;;;;;;15.02;10.65;;;;;;;;;;4977081;28;20176;-78
2023/04/17 11:39:18;;;;;;;15.90;12.13;;;;;;;;;;4976379;28;20169;-78
2023/04/17 11:41:44;;;;;;;17.88;11.68;;;;;;;;;;4974890;28;20255;-78
2023/04/17 11:44:11;;;;;;;18.05;12.02;;;;;;;;;;4975604;28;20287;-78
2023/04/17 11:46:36;;;;;;;22.45;13.65;;;;;;;;;;4975455;28;20187;-79
2023/04/17 11:49:05;;;;;;;15.68;11.13;;;;;;;;;;4977281;28;20377;-78
2023/04/17 11:51:31;;;;;;;17.65;12.30;;;;;;;;;;4976287;28;20192;-78
2023/04/17 11:53:56;;;;;;;18.27;12.05;;;;;;;;;;4982376;28;20203;-77
2023/04/17 11:56:27;;;;;;;22.17;12.32;;;;;;;;;;4977112;28;20664;-78
2023/04/17 11:58:53;;;;;;;18.48;12.63;;;;;;;;;;4971933;28;20187;-79
2023/04/17 12:01:25;;;;;;;18.08;12.13;;;;;;;;;;4973806;28;20192;-79
2023/04/17 12:03:51;;;;;;;19.35;11.23;;;;;;;;;;4975035;28;20168;-78
2023/04/17 12:06:17;;;;;;;16.70;11.55;;;;;;;;;;4976548;28;20199;-78
2023/04/17 12:08:43;;;;;;;19.67;11.77;;;;;;;;;;4985773;28;20234;-78
2023/04/17 12:11:13;;;;;;;16.80;11.40;;;;;;;;;;4979775;28;20267;-78
2023/04/17 12:13:39;;;;;;;19.67;12.38;;;;;;;;;;4983831;28;20624;-78
2023/04/17 12:16:04;;;;;;;17.80;11.07;;;;;;;;;;4977011;28;20168;-79
2023/04/17 12:18:29;;;;;;;16.88;11.73;;;;;;;;;;4968201;28;20183;-78
2023/04/17 12:20:54;;;;;;;16.17;11.60;;;;;;;;;;4976203;28;20197;-78
2023/04/17 12:23:19;;;;;;;15.93;11.05;;;;;;;;;;4978281;28;20403;-77
2023/04/17 12:25:45;;;;;;;15.65;11.48;;;;;;;;;;4979131;28;20507;-77
2023/04/17 12:28:10;;;;;;;17.40;12.52;;;;;;;;;;4980061;28;20221;-78
2023/04/17 12:30:38;;;;;;;16.00;11.27;;;;;;;;;;4980500;28;20200;-78
2023/04/17 12:33:05;;;;;;;16.08;12.15;;;;;;;;;;4980988;28;20212;-78
2023/04/17 12:35:30;;;;;;;18.10;12.57;;;;;;;;;;4981868;28;20168;-78
2023/04/17 12:37:56;;;;;;;16.27;11.93;;;;;;;;;;4980441;28;20176;-78
2023/04/17 12:40:22;;;;;;;16.50;11.40;;;;;;;;;;4975367;28;20264;-78
2023/04/17 12:42:47;;;;;;;15.88;11.57;;;;;;;;;;4973943;28;20173;-79
2023/04/17 12:45:16;;;;;;;17.02;11.73;;;;;;;;;;4979462;28;20262;-79
2023/04/17 12:47:41;;;;;;;18.48;12.32;;;;;;;;;;4977185;28;20259;-79
2023/04/17 12:50:07;;;;;;;16.90;11.68;;;;;;;;;;4974172;28;20266;-79
2023/04/17 12:52:32;;;;;;;17.58;12.07;;;;;;;;;;4974535;28;20196;-79
2023/04/17 12:54:58;;;;;;;13.93;10.65;;;;;;;;;;4977054;28;20214;-78
2023/04/17 12:57:27;;;;;;;16.15;10.82;;;;;;;;;;4974896;28;20175;-78
2023/04/17 12:59:53;;;;;;;15.70;11.27;;;;;;;;;;4975205;28;20173;-78
2023/04/17 13:02:19;;;;;;;15.18;10.07;;;;;;;;;;4985003;28;20176;-78
2023/04/17 13:04:46;;;;;;;16.90;10.35;;;;;;;;;;4989897;28;20263;-78
2023/04/17 13:07:12;;;;;;;15.52;10.50;;;;;;;;;;4994151;28;20180;-77
2023/04/17 13:09:37;;;;;;;15.93;9.88;;;;;;;;;;4982576;28;20540;-77
2023/04/17 13:12:03;;;;;;;18.05;11.95;;;;;;;;;;4974124;28;20227;-78
2023/04/17 13:14:28;;;;;;;14.52;11.05;;;;;;;;;;4977626;28;20194;-79
2023/04/17 13:16:53;;;;;;;16.33;11.85;;;;;;;;;;4976460;28;20183;-79
2023/04/17 13:19:19;;;;;;;17.00;11.93;;;;;;;;;;4971482;28;20177;-79
2023/04/17 13:21:44;;;;;;;15.77;11.35;;;;;;;;;;4976003;28;20204;-79
2023/04/17 13:24:13;;;;;;;18.40;12.05;;;;;;;;;;4976364;28;20235;-79
2023/04/17 13:26:42;;;;;;;18.80;13.13;;;;;;;;;;4976785;28;20263;-79
2023/04/17 13:29:07;;;;;;;15.88;11.75;;;;;;;;;;4977727;28;20296;-79
2023/04/17 13:31:32;;;;;;;19.67;11.43;;;;;;;;;;4976877;28;20201;-79
2023/04/17 13:33:57;;;;;;;16.15;11.27;;;;;;;;;;4976677;28;20226;-79
2023/04/17 13:36:23;;;;;;;14.97;11.10;;;;;;;;;;4976262;28;20259;-79
2023/04/17 13:38:48;;;;;;;16.27;11.75;;;;;;;;;;4974650;28;20932;-79
2023/04/17 13:41:13;;;;;;;16.00;12.40;;;;;;;;;;4968589;28;20200;-77
2023/04/17 13:43:38;;;;;;;13.53;10.90;;;;;;;;;;4973431;28;20176;-77
2023/04/17 13:46:04;;;;;;;17.75;11.32;;;;;;;;;;4975490;28;20414;-77
2023/04/17 13:48:29;;;;;;;16.13;10.32;;;;;;;;;;4975067;28;20189;-78
2023/04/17 13:50:54;;;;;;;15.55;8.50;;;;;;;;;;4974406;28;20233;-78
2023/04/17 13:53:19;;;;;;;13.13;9.25;;;;;;;;;;4974296;28;20283;-77
2023/04/17 13:55:44;;;;;;;16.77;11.38;;;;;;;;;;4973541;28;20259;-77
2023/04/17 13:58:10;;;;;;;15.15;10.65;;;;;;;;;;4975232;28;20254;-79
2023/04/17 14:00:35;;;;;;;17.52;12.10;;;;;;;;;;4975850;28;20279;-77
2023/04/17 14:03:00;;;;;;;15.68;11.88;;;;;;;;;;4976999;28;20184;-78
2023/04/17 14:05:26;;;;;;;17.27;12.57;;;;;;;;;;4975174;28;20192;-78
2023/04/17 14:07:51;;;;;;;16.52;12.38;;;;;;;;;;4974802;28;20175;-78
2023/04/17 14:10:16;;;;;;;18.95;12.30;;;;;;;;;;4974374;28;20419;-78